createdAt,value
2022-12-04T00:01:25.771Z,13.00
2022-12-04T00:03:28.671Z,10.82
2022-12-04T00:05:31.704Z,12.52
2022-12-04T00:07:36.206Z,12.70
2022-12-04T00:09:39.092Z,11.98
2022-12-04T00:11:41.899Z,12.02
2022-12-04T00:13:45.414Z,13.35
2022-12-04T00:15:48.232Z,13.55
2022-12-04T00:17:51.238Z,12.20
2022-12-04T00:19:54.366Z,12.60
2022-12-04T00:21:57.442Z,12.85
2022-12-04T00:24:01.624Z,11.65
2022-12-04T00:26:06.510Z,12.00
2022-12-04T00:30:12.894Z,13.05
2022-12-04T00:32:16.007Z,13.38
2022-12-04T00:34:19.526Z,13.38
2022-12-04T00:36:25.268Z,12.27
2022-12-04T00:38:28.669Z,14.90
2022-12-04T00:40:32.976Z,13.05
2022-12-04T00:42:35.923Z,13.30
2022-12-04T00:44:38.767Z,14.02
2022-12-04T00:46:41.544Z,13.30
2022-12-04T00:48:44.891Z,14.13
2022-12-04T00:50:47.697Z,14.38
2022-12-04T00:52:50.493Z,14.15
2022-12-04T00:54:53.582Z,14.75
2022-12-04T00:56:57.672Z,12.93
2022-12-04T00:59:02.183Z,13.48
2022-12-04T01:01:07.256Z,13.95
2022-12-04T01:03:10.607Z,12.68
2022-12-04T01:05:14.113Z,13.10
2022-12-04T01:07:16.946Z,13.10
2022-12-04T01:09:20.043Z,12.20
2022-12-04T01:11:24.683Z,13.23
2022-12-04T01:13:28.866Z,12.80
2022-12-04T01:15:31.681Z,13.10
2022-12-04T01:17:34.501Z,13.50
2022-12-04T01:19:37.301Z,14.20
2022-12-04T01:21:40.523Z,12.77
2022-12-04T01:23:44.057Z,14.43
2022-12-04T01:25:54.743Z,12.98
2022-12-04T01:27:57.785Z,12.98
2022-12-04T01:30:02.039Z,14.38
2022-12-04T01:32:05.435Z,13.25
2022-12-04T01:34:08.285Z,12.82
2022-12-04T01:36:14.211Z,14.65
2022-12-04T01:38:17.036Z,14.43
2022-12-04T01:40:19.822Z,13.38
2022-12-04T01:42:22.629Z,13.07
2022-12-04T01:44:27.407Z,14.05
2022-12-04T01:46:31.593Z,15.27
2022-12-04T01:48:35.801Z,14.27
2022-12-04T01:50:38.952Z,13.43
2022-12-04T01:52:41.903Z,13.88
2022-12-04T01:54:48.602Z,15.13
2022-12-04T01:56:56.138Z,14.75
2022-12-04T01:59:02.657Z,16.10
2022-12-04T02:01:09.102Z,14.70
2022-12-04T02:03:14.683Z,15.30
2022-12-04T02:05:21.127Z,13.85
2022-12-04T02:07:24.104Z,13.48
2022-12-04T02:09:27.618Z,13.60
2022-12-04T02:11:39.549Z,14.13
2022-12-04T02:13:55.466Z,14.85
2022-12-04T02:16:06.621Z,15.23
2022-12-04T02:18:19.788Z,13.60
2022-12-04T02:20:32.216Z,15.05
2022-12-04T02:22:55.011Z,15.45
2022-12-04T02:25:06.773Z,14.32
2022-12-04T02:27:19.039Z,14.40
2022-12-04T02:29:35.752Z,14.30
2022-12-04T02:31:44.711Z,15.57
2022-12-04T02:33:52.116Z,16.00
2022-12-04T02:36:04.055Z,17.58
2022-12-04T02:38:13.203Z,17.35
2022-12-04T02:40:22.079Z,15.68
2022-12-04T02:42:33.929Z,16.63
2022-12-04T02:44:43.218Z,18.98
2022-12-04T02:46:49.910Z,18.98
2022-12-04T02:48:56.966Z,19.48
2022-12-04T02:51:03.651Z,19.05
2022-12-04T02:53:09.938Z,16.73
2022-12-04T02:55:18.744Z,16.50
2022-12-04T02:57:26.063Z,17.23
2022-12-04T02:59:34.704Z,16.13
2022-12-04T03:01:43.175Z,16.60
2022-12-04T03:03:50.774Z,17.38
2022-12-04T03:05:59.686Z,17.25
2022-12-04T03:08:09.532Z,17.23
2022-12-04T03:10:16.349Z,16.55
2022-12-04T03:12:22.915Z,18.17
2022-12-04T03:14:29.964Z,17.50
2022-12-04T03:16:38.480Z,17.00
2022-12-04T03:18:45.498Z,15.52
2022-12-04T03:20:52.511Z,18.15
2022-12-04T03:23:00.531Z,17.13
2022-12-04T03:25:05.760Z,17.23
2022-12-04T03:27:15.667Z,17.55
2022-12-04T03:29:22.459Z,17.63
2022-12-04T03:31:32.672Z,16.38
2022-12-04T03:33:43.641Z,16.13
2022-12-04T03:35:53.295Z,16.80
2022-12-04T03:38:04.719Z,16.55
2022-12-04T03:40:18.399Z,16.73
2022-12-04T03:42:26.315Z,17.17
2022-12-04T03:44:37.412Z,16.08
2022-12-04T03:46:46.786Z,15.02
2022-12-04T03:48:56.478Z,16.02
2022-12-04T03:51:04.780Z,15.10
2022-12-04T03:53:13.184Z,15.32
2022-12-04T03:55:24.514Z,15.98
2022-12-04T03:57:32.280Z,16.15
2022-12-04T03:59:39.207Z,15.98
2022-12-04T04:01:48.539Z,13.55
2022-12-04T04:03:56.053Z,15.55
2022-12-04T04:06:03.030Z,14.73
2022-12-04T04:08:28.124Z,16.70
2022-12-04T04:10:31.052Z,15.07
2022-12-04T04:12:39.731Z,15.68
2022-12-04T04:15:06.384Z,17.75
2022-12-04T04:17:32.274Z,16.25
2022-12-04T04:19:59.660Z,13.80
2022-12-04T04:22:25.842Z,15.63
2022-12-04T04:24:33.586Z,16.30
2022-12-04T04:26:40.602Z,16.95
2022-12-04T04:28:43.944Z,15.93
2022-12-04T04:30:46.764Z,15.20
2022-12-04T04:32:58.393Z,15.65
2022-12-04T04:35:10.218Z,16.70
2022-12-04T04:37:23.396Z,16.77
2022-12-04T04:39:32.873Z,15.73
2022-12-04T04:41:45.321Z,14.95
2022-12-04T04:43:54.644Z,15.93
2022-12-04T04:46:02.422Z,16.15
2022-12-04T04:48:10.278Z,18.50
2022-12-04T04:50:17.275Z,15.32
2022-12-04T04:52:23.319Z,15.25
2022-12-04T04:54:26.984Z,15.52
2022-12-04T04:56:29.894Z,14.52
2022-12-04T04:58:32.784Z,14.27
2022-12-04T05:00:36.141Z,14.98
2022-12-04T05:02:39.168Z,13.52
2022-12-04T05:04:41.963Z,13.70
2022-12-04T05:06:46.106Z,14.55
2022-12-04T05:08:49.277Z,13.80
2022-12-04T05:10:52.182Z,15.77
2022-12-04T05:12:54.967Z,13.07
2022-12-04T05:14:57.786Z,14.55
2022-12-04T05:17:02.072Z,12.93
2022-12-04T05:19:23.121Z,12.20
2022-12-04T05:21:26.000Z,14.40
2022-12-04T05:23:30.248Z,14.15
2022-12-04T05:25:33.048Z,13.75
2022-12-04T05:27:35.837Z,13.25
2022-12-04T05:29:38.899Z,13.07
2022-12-04T05:31:41.782Z,12.23
2022-12-04T05:33:44.572Z,12.43
2022-12-04T05:35:57.411Z,14.13
2022-12-04T05:38:00.191Z,12.60
2022-12-04T05:40:05.481Z,12.90
2022-12-04T05:42:08.351Z,13.35
2022-12-04T05:44:11.203Z,13.52
2022-12-04T05:46:14.093Z,12.80
2022-12-04T05:48:16.868Z,13.23
2022-12-04T05:50:19.766Z,12.57
2022-12-04T05:52:23.718Z,13.65
2022-12-04T05:54:26.724Z,12.15
2022-12-04T05:56:30.883Z,12.35
2022-12-04T05:58:35.817Z,12.52
2022-12-04T06:00:38.593Z,13.10
2022-12-04T06:02:41.473Z,12.13
2022-12-04T06:04:44.375Z,12.68
2022-12-04T06:06:47.244Z,11.55
2022-12-04T06:08:51.134Z,13.38
2022-12-04T06:10:53.970Z,10.48
2022-12-04T06:12:58.195Z,11.43
2022-12-04T06:15:01.062Z,11.85
2022-12-04T06:17:04.814Z,12.43
2022-12-04T06:19:09.470Z,12.77
2022-12-04T06:21:12.518Z,13.65
2022-12-04T06:23:15.314Z,13.20
2022-12-04T06:25:20.635Z,13.50
2022-12-04T06:27:27.923Z,13.90
2022-12-04T06:29:33.235Z,11.75
2022-12-04T06:31:38.073Z,11.70
2022-12-04T06:35:43.971Z,11.88
2022-12-04T06:37:46.822Z,11.10
2022-12-04T06:39:49.781Z,11.40
2022-12-04T06:41:52.831Z,10.15
2022-12-04T06:43:56.497Z,9.82
2022-12-04T06:46:05.875Z,10.18
2022-12-04T06:48:08.703Z,11.95
2022-12-04T06:50:12.053Z,9.95
2022-12-04T06:52:14.852Z,11.48
2022-12-04T06:54:17.677Z,10.13
2022-12-04T06:56:23.645Z,9.63
2022-12-04T06:58:26.695Z,10.77
2022-12-04T07:00:29.635Z,13.07
2022-12-04T07:02:33.836Z,11.77
2022-12-04T07:04:36.705Z,10.98
2022-12-04T07:06:40.276Z,10.65
2022-12-04T07:08:43.605Z,10.35
2022-12-04T07:10:46.400Z,11.35
2022-12-04T07:12:49.202Z,11.52
2022-12-04T07:14:52.004Z,10.15
2022-12-04T07:16:54.937Z,10.25
2022-12-04T07:18:59.235Z,11.32
2022-12-04T07:21:06.008Z,10.18
2022-12-04T07:23:08.770Z,11.32
2022-12-04T07:25:12.954Z,10.57
2022-12-04T07:27:15.775Z,11.13
2022-12-04T07:29:18.657Z,11.43
2022-12-04T07:31:23.782Z,12.15
2022-12-04T07:33:26.721Z,12.18
2022-12-04T07:35:30.942Z,13.45
2022-12-04T07:37:36.790Z,10.90
2022-12-04T07:39:39.587Z,12.57
2022-12-04T07:41:42.450Z,15.05
2022-12-04T07:43:45.675Z,13.02
2022-12-04T07:45:48.495Z,10.65
2022-12-04T07:47:51.333Z,11.10
2022-12-04T07:49:54.564Z,11.77
2022-12-04T07:51:58.938Z,9.52
2022-12-04T07:54:03.952Z,10.52
2022-12-04T07:56:08.196Z,10.27
2022-12-04T07:58:11.052Z,11.05
2022-12-04T08:00:15.890Z,11.20
2022-12-04T08:02:18.623Z,10.35
2022-12-04T08:04:21.396Z,9.10
2022-12-04T08:06:26.051Z,10.43
2022-12-04T08:08:30.261Z,9.77
2022-12-04T08:10:33.070Z,10.68
2022-12-04T08:12:35.973Z,10.07
2022-12-04T08:14:38.897Z,10.68
2022-12-04T08:16:41.719Z,9.43
2022-12-04T08:18:48.701Z,10.25
2022-12-04T08:20:51.683Z,10.05
2022-12-04T08:22:54.456Z,10.35
2022-12-04T08:24:58.599Z,11.52
2022-12-04T08:29:06.578Z,9.75
2022-12-04T08:31:12.707Z,9.10
2022-12-04T08:33:15.624Z,9.45
2022-12-04T08:35:18.366Z,9.48
2022-12-04T08:37:21.236Z,9.63
2022-12-04T08:39:24.172Z,10.05
2022-12-04T08:41:28.740Z,10.95
2022-12-04T08:45:34.812Z,10.05
2022-12-04T08:47:37.568Z,11.10
2022-12-04T08:49:41.259Z,10.55
2022-12-04T08:51:44.048Z,11.15
2022-12-04T08:53:47.037Z,13.73
2022-12-04T08:55:50.214Z,10.98
2022-12-04T08:57:54.780Z,9.90
2022-12-04T08:59:57.921Z,10.52
2022-12-04T09:02:01.070Z,10.38
2022-12-04T09:04:04.004Z,9.88
2022-12-04T09:06:08.344Z,11.13
2022-12-04T09:08:11.303Z,10.43
2022-12-04T09:10:14.260Z,10.38
2022-12-04T09:12:17.142Z,11.35
2022-12-04T09:14:25.629Z,11.23
2022-12-04T09:16:28.563Z,11.48
2022-12-04T09:18:31.779Z,11.32
2022-12-04T09:20:34.666Z,10.70
2022-12-04T09:23:02.303Z,11.45
2022-12-04T09:25:01.528Z,10.77
2022-12-04T09:27:05.328Z,11.40
2022-12-04T09:29:12.372Z,10.80
2022-12-04T09:31:18.555Z,10.75
2022-12-04T09:33:21.410Z,10.55
2022-12-04T09:35:24.260Z,10.98
2022-12-04T09:37:27.159Z,11.57
2022-12-04T09:39:30.028Z,11.30
2022-12-04T09:42:04.679Z,10.95
2022-12-04T09:44:15.339Z,11.07
2022-12-04T09:46:37.694Z,10.75
2022-12-04T09:48:43.992Z,10.52
2022-12-04T09:50:48.935Z,11.70
2022-12-04T09:55:01.495Z,11.43
2022-12-04T09:57:16.303Z,11.15
2022-12-04T09:59:22.896Z,11.50
2022-12-04T10:01:32.268Z,12.32
2022-12-04T10:03:35.279Z,11.10
2022-12-04T10:05:46.398Z,11.00
2022-12-04T10:08:00.537Z,10.73
2022-12-04T10:10:08.169Z,10.88
2022-12-04T10:12:22.986Z,11.70
2022-12-04T10:14:45.800Z,11.48
2022-12-04T10:17:08.701Z,11.60
2022-12-04T10:19:22.422Z,10.88
2022-12-04T10:21:35.160Z,11.38
2022-12-04T10:23:49.103Z,12.65
2022-12-04T10:25:56.142Z,12.60
2022-12-04T10:28:03.696Z,13.95
2022-12-04T10:30:17.792Z,13.63
2022-12-04T10:32:25.101Z,14.50
2022-12-04T10:34:30.020Z,14.25
2022-12-04T10:38:43.164Z,15.77
2022-12-04T10:40:49.330Z,14.55
2022-12-04T10:42:56.470Z,15.73
2022-12-04T10:44:59.402Z,17.52
2022-12-04T10:47:06.128Z,15.73
2022-12-04T10:49:18.414Z,14.77
2022-12-04T10:51:22.875Z,14.73
2022-12-04T10:53:31.467Z,16.45
2022-12-04T10:55:38.163Z,15.00
2022-12-04T10:57:43.736Z,15.75
2022-12-04T10:59:52.336Z,15.85
2022-12-04T11:02:06.325Z,16.42
2022-12-04T11:04:21.607Z,13.88
2022-12-04T11:06:25.778Z,15.05
2022-12-04T11:08:34.850Z,17.45
2022-12-04T11:10:40.483Z,15.18
2022-12-04T11:12:54.099Z,16.05
2022-12-04T11:15:12.915Z,15.43
2022-12-04T11:17:19.023Z,15.25
2022-12-04T11:19:25.779Z,15.73
2022-12-04T11:21:30.740Z,15.90
2022-12-04T11:25:46.089Z,16.33
2022-12-04T11:27:51.552Z,16.20
2022-12-04T11:29:55.371Z,14.27
2022-12-04T11:32:02.767Z,17.15
2022-12-04T11:34:15.481Z,16.60
2022-12-04T11:36:24.570Z,16.92
2022-12-04T11:38:29.984Z,14.88
2022-12-04T11:40:32.886Z,17.08
2022-12-04T11:42:38.045Z,16.38
2022-12-04T11:44:51.638Z,17.08
2022-12-04T11:46:58.621Z,16.10
2022-12-04T11:49:03.283Z,17.02
2022-12-04T11:51:13.939Z,15.98
2022-12-04T11:53:25.259Z,16.60
2022-12-04T11:55:39.853Z,16.25
2022-12-04T11:57:49.269Z,17.23
2022-12-04T12:00:05.701Z,16.00
2022-12-04T12:02:36.191Z,15.80
2022-12-04T12:05:09.335Z,15.90
2022-12-04T12:07:27.183Z,16.15
2022-12-04T12:09:39.013Z,16.30
2022-12-04T12:11:49.242Z,16.75
2022-12-04T12:13:59.578Z,15.15
2022-12-04T12:16:13.396Z,16.52
2022-12-04T12:18:39.808Z,15.68
2022-12-04T12:20:49.851Z,16.38
2022-12-04T12:23:09.392Z,17.50
2022-12-04T12:25:20.562Z,16.23
2022-12-04T12:27:44.004Z,17.13
2022-12-04T12:30:02.743Z,17.88
2022-12-04T12:32:14.922Z,16.08
2022-12-04T12:34:32.494Z,16.50
2022-12-04T12:36:43.849Z,17.95
2022-12-04T12:38:51.293Z,16.40
2022-12-04T12:41:02.527Z,18.65
2022-12-04T12:43:08.579Z,16.08
2022-12-04T12:45:25.762Z,17.35
2022-12-04T12:47:35.951Z,17.08
2022-12-04T12:49:42.654Z,16.73
2022-12-04T12:51:50.848Z,17.63
2022-12-04T12:53:56.786Z,17.48
2022-12-04T12:56:03.424Z,16.73
2022-12-04T12:58:13.572Z,18.58
2022-12-04T13:00:18.227Z,20.02
2022-12-04T13:02:28.453Z,16.98
2022-12-04T13:04:36.304Z,17.60
2022-12-04T13:06:41.335Z,17.38
2022-12-04T13:11:03.346Z,17.63
2022-12-04T13:13:09.690Z,18.35
2022-12-04T13:15:16.036Z,19.42
2022-12-04T13:17:24.961Z,22.60
2022-12-04T13:19:32.540Z,20.60
2022-12-04T13:21:38.590Z,20.10
2022-12-04T13:23:56.041Z,18.90
2022-12-04T13:26:08.500Z,20.80
2022-12-04T13:28:24.464Z,22.48
2022-12-04T13:30:33.501Z,21.70
2022-12-04T13:33:07.923Z,20.73
2022-12-04T13:35:20.880Z,20.17
2022-12-04T13:37:49.395Z,20.17
2022-12-04T13:40:28.266Z,19.00
2022-12-04T13:42:33.049Z,19.67
2022-12-04T13:44:36.613Z,18.23
2022-12-04T13:46:42.797Z,19.05
2022-12-04T13:48:45.832Z,19.25
2022-12-04T13:50:48.668Z,20.25
2022-12-04T13:52:53.429Z,18.80
2022-12-04T13:55:00.170Z,19.70
2022-12-04T13:57:20.955Z,17.55
2022-12-04T13:59:36.547Z,18.17
2022-12-04T14:01:42.037Z,18.80
2022-12-04T14:03:49.070Z,17.58
2022-12-04T14:05:52.451Z,18.08
2022-12-04T14:08:07.993Z,18.95
2022-12-04T14:10:28.528Z,19.73
2022-12-04T14:12:36.373Z,18.23
2022-12-04T14:14:45.411Z,21.27
2022-12-04T14:16:50.236Z,21.10
2022-12-04T14:18:56.125Z,21.65
2022-12-04T14:21:01.034Z,21.42
2022-12-04T14:25:34.589Z,20.17
2022-12-04T14:27:45.039Z,20.60
2022-12-04T14:29:55.639Z,20.67
2022-12-04T14:32:01.881Z,17.95
2022-12-04T14:34:21.170Z,21.23
2022-12-04T14:36:26.282Z,21.90
2022-12-04T14:38:29.560Z,19.58
2022-12-04T14:40:38.285Z,21.38
2022-12-04T14:42:42.594Z,24.25
2022-12-04T14:44:47.549Z,21.77
2022-12-04T14:46:55.065Z,19.88
2022-12-04T14:49:08.116Z,21.35
2022-12-04T14:51:18.624Z,18.98
2022-12-04T14:53:35.006Z,21.95
2022-12-04T14:55:47.739Z,20.27
2022-12-04T14:57:55.793Z,22.25
2022-12-04T15:00:00.502Z,18.70
2022-12-04T15:02:05.616Z,20.05
2022-12-04T15:04:14.259Z,19.42
2022-12-04T15:06:22.864Z,19.55
2022-12-04T15:08:25.650Z,19.35
2022-12-04T15:11:02.902Z,19.63
2022-12-04T15:13:05.819Z,20.52
2022-12-04T15:15:19.369Z,20.27
2022-12-04T15:17:23.551Z,19.35
2022-12-04T15:19:26.382Z,19.48
2022-12-04T15:21:38.020Z,19.92
2022-12-04T15:23:42.351Z,19.55
2022-12-04T15:25:47.628Z,19.17
2022-12-04T15:27:54.192Z,20.73
2022-12-04T15:29:58.517Z,20.92
2022-12-04T15:32:04.598Z,19.48
2022-12-04T15:34:14.514Z,20.02
2022-12-04T15:36:20.956Z,20.08
2022-12-04T15:38:24.139Z,19.42
2022-12-04T15:40:30.189Z,18.30
2022-12-04T15:42:33.010Z,18.90
2022-12-04T15:44:36.439Z,20.48
2022-12-04T15:46:39.286Z,21.17
2022-12-04T15:48:47.807Z,20.27
2022-12-04T15:50:59.069Z,22.00
2022-12-04T15:53:08.502Z,19.75
2022-12-04T15:55:18.178Z,20.00
2022-12-04T15:57:27.596Z,20.98
2022-12-04T15:59:31.614Z,21.90
2022-12-04T16:01:40.352Z,22.47
2022-12-04T16:03:48.442Z,21.52
2022-12-04T16:06:02.275Z,20.73
2022-12-04T16:08:33.899Z,19.90
2022-12-04T16:10:37.166Z,20.08
2022-12-04T16:12:40.138Z,21.98
2022-12-04T16:14:42.922Z,19.50
2022-12-04T16:16:48.134Z,19.13
2022-12-04T16:18:51.216Z,19.48
2022-12-04T16:20:54.393Z,19.45
2022-12-04T16:22:57.175Z,19.70
2022-12-04T16:25:01.319Z,20.10
2022-12-04T16:27:10.940Z,20.75
2022-12-04T16:29:13.741Z,21.00
2022-12-04T16:31:20.264Z,21.50
2022-12-04T16:33:23.112Z,21.83
2022-12-04T16:35:26.048Z,21.17
2022-12-04T16:37:31.608Z,23.67
2022-12-04T16:39:38.318Z,23.98
2022-12-04T16:41:45.364Z,22.00
2022-12-04T16:43:55.584Z,21.48
2022-12-04T16:46:01.046Z,21.27
2022-12-04T16:48:04.096Z,22.27
2022-12-04T16:50:08.635Z,19.13
2022-12-04T16:52:12.173Z,22.38
2022-12-04T16:54:14.945Z,20.45
2022-12-04T16:56:20.756Z,21.23
2022-12-04T16:58:25.212Z,21.55
2022-12-04T17:00:28.417Z,19.13
2022-12-04T17:02:31.496Z,19.67
2022-12-04T17:04:34.414Z,19.60
2022-12-04T17:06:37.508Z,18.52
2022-12-04T17:08:40.317Z,21.65
2022-12-04T17:10:43.101Z,19.45
2022-12-04T17:12:46.076Z,18.92
2022-12-04T17:14:50.189Z,19.10
2022-12-04T17:16:54.855Z,20.30
2022-12-04T17:18:57.814Z,20.50
2022-12-04T17:21:00.722Z,20.92
2022-12-04T17:23:03.510Z,20.63
2022-12-04T17:25:07.294Z,21.20
2022-12-04T17:27:12.834Z,20.38
2022-12-04T17:29:15.660Z,18.95
2022-12-04T17:31:21.598Z,20.35
2022-12-04T17:33:24.577Z,19.27
2022-12-04T17:35:27.426Z,20.85
2022-12-04T17:37:30.433Z,19.33
2022-12-04T17:39:33.216Z,20.98
2022-12-04T17:41:36.115Z,20.30
2022-12-04T17:43:38.954Z,19.50
2022-12-04T17:45:41.985Z,20.65
2022-12-04T17:47:46.050Z,20.35
2022-12-04T17:49:48.823Z,20.70
2022-12-04T17:51:51.710Z,20.38
2022-12-04T17:53:54.803Z,19.65
2022-12-04T17:55:57.580Z,20.25
2022-12-04T17:58:00.392Z,19.77
2022-12-04T18:00:03.221Z,18.50
2022-12-04T18:02:15.733Z,19.42
2022-12-04T18:04:20.829Z,19.55
2022-12-04T18:06:25.155Z,21.48
2022-12-04T18:08:30.457Z,21.42
2022-12-04T18:10:35.271Z,21.40
2022-12-04T18:12:38.074Z,20.65
2022-12-04T18:14:41.169Z,21.05
2022-12-04T18:16:46.177Z,21.23
2022-12-04T18:18:50.675Z,21.85
2022-12-04T18:21:02.136Z,21.98
2022-12-04T18:23:05.119Z,21.88
2022-12-04T18:25:09.047Z,22.10
2022-12-04T18:27:11.899Z,19.00
2022-12-04T18:29:17.636Z,21.15
2022-12-04T18:31:20.850Z,20.75
2022-12-04T18:33:24.773Z,23.50
2022-12-04T18:35:27.644Z,19.73
2022-12-04T18:37:33.981Z,21.45
2022-12-04T18:39:37.973Z,21.00
2022-12-04T18:41:44.328Z,20.80
2022-12-04T18:43:47.136Z,19.30
2022-12-04T18:46:04.039Z,21.58
2022-12-04T18:48:09.887Z,19.05
2022-12-04T18:50:13.246Z,21.45
2022-12-04T18:52:16.229Z,19.70
2022-12-04T18:54:22.280Z,20.13
2022-12-04T18:56:25.136Z,21.80
2022-12-04T18:58:27.947Z,22.70
2022-12-04T19:00:30.785Z,19.52
2022-12-04T19:02:33.672Z,21.15
2022-12-04T19:04:36.456Z,21.55
2022-12-04T19:06:41.249Z,19.08
2022-12-04T19:08:44.053Z,19.25
2022-12-04T19:10:48.169Z,19.20
2022-12-04T19:12:52.544Z,19.60
2022-12-04T19:14:55.380Z,18.60
2022-12-04T19:16:58.285Z,20.15
2022-12-04T19:19:01.212Z,19.50
2022-12-04T19:21:05.824Z,19.85
2022-12-04T19:23:09.209Z,20.50
2022-12-04T19:25:12.020Z,20.00
2022-12-04T19:27:16.219Z,20.08
2022-12-04T19:29:19.001Z,20.10
2022-12-04T19:31:23.995Z,19.17
2022-12-04T19:33:26.871Z,19.83
2022-12-04T19:35:29.689Z,19.90
2022-12-04T19:37:32.489Z,20.13
2022-12-04T19:39:35.517Z,20.15
2022-12-04T19:41:40.688Z,20.10
2022-12-04T19:43:47.040Z,20.77
2022-12-04T19:45:50.027Z,19.35
2022-12-04T19:47:52.850Z,17.00
2022-12-04T19:49:56.107Z,20.00
2022-12-04T19:51:59.477Z,20.45
2022-12-04T19:54:02.329Z,20.48
2022-12-04T19:56:06.574Z,19.45
2022-12-04T19:58:09.284Z,18.33
2022-12-04T20:00:14.425Z,19.27
2022-12-04T20:02:17.323Z,19.48
2022-12-04T20:04:20.160Z,17.73
2022-12-04T20:06:24.958Z,19.85
2022-12-04T20:08:27.723Z,20.23
2022-12-04T20:10:30.675Z,20.52
2022-12-04T20:12:33.459Z,19.95
2022-12-04T20:14:36.334Z,19.80
2022-12-04T20:16:41.210Z,21.40
2022-12-04T20:20:55.517Z,17.48
2022-12-04T20:22:58.762Z,20.67
2022-12-04T20:25:01.584Z,20.58
2022-12-04T20:27:04.463Z,19.60
2022-12-04T20:29:10.703Z,20.23
2022-12-04T20:31:15.868Z,18.65
2022-12-04T20:33:20.060Z,19.55
2022-12-04T20:35:22.912Z,20.65
2022-12-04T20:37:25.883Z,19.85
2022-12-04T20:39:29.623Z,19.55
2022-12-04T20:41:33.423Z,20.35
2022-12-04T20:43:36.590Z,17.88
2022-12-04T20:45:39.646Z,19.50
2022-12-04T20:47:42.452Z,18.02
2022-12-04T20:49:47.781Z,19.30
2022-12-04T20:51:52.344Z,20.40
2022-12-04T20:53:58.011Z,18.58
2022-12-04T20:56:02.795Z,19.65
2022-12-04T20:58:06.491Z,19.13
2022-12-04T21:00:10.290Z,19.85
2022-12-04T21:02:13.702Z,20.05
2022-12-04T21:04:17.839Z,20.13
2022-12-04T21:06:25.602Z,21.10
2022-12-04T21:08:47.710Z,20.52
2022-12-04T21:10:51.674Z,19.25
2022-12-04T21:13:12.207Z,20.20
2022-12-04T21:15:32.769Z,21.38
2022-12-04T21:17:35.597Z,20.23
2022-12-04T21:19:38.819Z,19.90
2022-12-04T21:21:43.069Z,21.55
2022-12-04T21:23:45.904Z,20.30
2022-12-04T21:25:48.658Z,22.15
2022-12-04T21:27:51.498Z,21.88
2022-12-04T21:29:55.941Z,21.95
2022-12-04T21:31:58.982Z,21.20
2022-12-04T21:34:03.554Z,22.40
2022-12-04T21:36:13.453Z,23.30
2022-12-04T21:38:17.570Z,23.23
2022-12-04T21:40:20.366Z,23.08
2022-12-04T21:42:31.017Z,22.52
2022-12-04T21:44:33.811Z,21.58
2022-12-04T21:46:38.121Z,22.10
2022-12-04T21:48:40.948Z,21.83
2022-12-04T21:50:43.692Z,22.75
2022-12-04T21:52:46.451Z,23.02
2022-12-04T21:54:51.863Z,23.65
2022-12-04T21:56:54.960Z,22.38
2022-12-04T21:58:58.206Z,23.70
2022-12-04T22:01:01.032Z,21.55
2022-12-04T22:03:05.482Z,25.00
2022-12-04T22:05:09.081Z,23.65
2022-12-04T22:07:12.374Z,24.90
2022-12-04T22:09:15.310Z,23.55
2022-12-04T22:11:20.322Z,23.63
2022-12-04T22:15:25.772Z,22.45
2022-12-04T22:17:30.455Z,23.65
2022-12-04T22:19:34.098Z,24.67
2022-12-04T22:21:37.009Z,24.80
2022-12-04T22:23:40.217Z,23.20
2022-12-04T22:25:43.031Z,24.83
2022-12-04T22:27:47.174Z,25.02
2022-12-04T22:29:51.232Z,25.92
2022-12-04T22:31:54.374Z,24.10
2022-12-04T22:33:59.244Z,24.55
2022-12-04T22:36:03.879Z,23.73
2022-12-04T22:38:06.775Z,23.55
2022-12-04T22:40:10.696Z,25.23
2022-12-04T22:42:13.547Z,23.40
2022-12-04T22:44:17.718Z,24.27
2022-12-04T22:46:20.635Z,23.90
2022-12-04T22:48:23.695Z,24.63
2022-12-04T22:50:26.502Z,23.02
2022-12-04T22:52:30.783Z,22.92
2022-12-04T22:54:33.759Z,23.90
2022-12-04T22:56:36.541Z,22.80
2022-12-04T22:58:39.630Z,20.45
2022-12-04T23:00:43.868Z,23.13
2022-12-04T23:02:46.854Z,21.48
2022-12-04T23:04:49.782Z,22.85
2022-12-04T23:06:52.812Z,23.00
2022-12-04T23:08:56.677Z,23.95
2022-12-04T23:11:04.281Z,20.35
2022-12-04T23:13:07.084Z,22.92
2022-12-04T23:15:10.603Z,19.75
2022-12-04T23:17:14.795Z,20.92
2022-12-04T23:19:19.822Z,23.95
2022-12-04T23:21:24.619Z,23.83
2022-12-04T23:23:27.363Z,21.00
2022-12-04T23:25:30.182Z,23.23
2022-12-04T23:27:33.185Z,22.48
2022-12-04T23:29:52.629Z,23.33
2022-12-04T23:31:56.251Z,23.23
2022-12-04T23:34:00.929Z,22.58
2022-12-04T23:36:05.134Z,25.50
2022-12-04T23:38:07.892Z,21.50
2022-12-04T23:40:11.419Z,20.70
2022-12-04T23:42:15.392Z,22.48
2022-12-04T23:44:18.233Z,21.42
2022-12-04T23:46:23.070Z,24.17
2022-12-04T23:48:26.734Z,21.63
2022-12-04T23:50:30.820Z,23.60
2022-12-04T23:52:33.631Z,23.42
2022-12-04T23:54:37.666Z,22.27
2022-12-04T23:56:40.567Z,24.20
2022-12-04T23:58:44.583Z,23.60
